sensor_id;sensor_type;location;lat;lon;timestamp;temperature;humidity
11848;DHT22;5983;49.966;8.052;2023-02-01T00:01:20;6.20;99.90
11848;DHT22;5983;49.966;8.052;2023-02-01T00:03:47;6.20;99.90
11848;DHT22;5983;49.966;8.052;2023-02-01T00:06:14;6.20;99.90
11848;DHT22;5983;49.966;8.052;2023-02-01T00:08:40;6.20;99.90
11848;DHT22;5983;49.966;8.052;2023-02-01T00:11:09;6.10;99.90
11848;DHT22;5983;49.966;8.052;2023-02-01T00:13:39;6.10;99.90
11848;DHT22;5983;49.966;8.052;2023-02-01T00:16:09;6.10;99.90
11848;DHT22;5983;49.966;8.052;2023-02-01T00:18:40;6.00;99.90
11848;DHT22;5983;49.966;8.052;2023-02-01T00:21:06;5.90;99.90
11848;DHT22;5983;49.966;8.052;2023-02-01T00:23:34;5.90;99.90
11848;DHT22;5983;49.966;8.052;2023-02-01T00:26:02;5.90;99.90
11848;DHT22;5983;49.966;8.052;2023-02-01T00:28:31;5.90;99.90
11848;DHT22;5983;49.966;8.052;2023-02-01T00:30:59;5.90;99.90
11848;DHT22;5983;49.966;8.052;2023-02-01T00:33:27;5.90;99.90
11848;DHT22;5983;49.966;8.052;2023-02-01T00:35:58;6.00;99.90
11848;DHT22;5983;49.966;8.052;2023-02-01T00:38:25;6.00;99.90
11848;DHT22;5983;49.966;8.052;2023-02-01T00:40:53;6.00;99.90
11848;DHT22;5983;49.966;8.052;2023-02-01T00:43:20;6.00;99.90
11848;DHT22;5983;49.966;8.052;2023-02-01T00:45:47;6.10;99.90
11848;DHT22;5983;49.966;8.052;2023-02-01T00:48:14;6.10;99.90
11848;DHT22;5983;49.966;8.052;2023-02-01T00:50:42;6.10;99.90
11848;DHT22;5983;49.966;8.052;2023-02-01T00:53:10;6.20;99.90
11848;DHT22;5983;49.966;8.052;2023-02-01T00:55:37;6.20;99.90
11848;DHT22;5983;49.966;8.052;2023-02-01T00:58:04;6.20;99.90
11848;DHT22;5983;49.966;8.052;2023-02-01T01:00:34;6.20;99.90
11848;DHT22;5983;49.966;8.052;2023-02-01T01:03:01;6.20;99.90
11848;DHT22;5983;49.966;8.052;2023-02-01T01:05:43;6.20;99.90
11848;DHT22;5983;49.966;8.052;2023-02-01T01:08:11;6.20;99.90
11848;DHT22;5983;49.966;8.052;2023-02-01T01:10:39;6.20;99.90
11848;DHT22;5983;49.966;8.052;2023-02-01T01:13:06;6.20;99.90
11848;DHT22;5983;49.966;8.052;2023-02-01T01:15:36;6.20;99.90
11848;DHT22;5983;49.966;8.052;2023-02-01T01:18:03;6.20;99.90
11848;DHT22;5983;49.966;8.052;2023-02-01T01:20:31;6.20;99.90
11848;DHT22;5983;49.966;8.052;2023-02-01T01:22:58;6.30;99.90
11848;DHT22;5983;49.966;8.052;2023-02-01T01:25:26;6.30;99.90
11848;DHT22;5983;49.966;8.052;2023-02-01T01:27:53;6.20;99.90
11848;DHT22;5983;49.966;8.052;2023-02-01T01:30:20;6.20;99.90
11848;DHT22;5983;49.966;8.052;2023-02-01T01:32:47;6.20;99.90
11848;DHT22;5983;49.966;8.052;2023-02-01T01:35:15;6.20;99.90
11848;DHT22;5983;49.966;8.052;2023-02-01T01:37:45;6.20;99.90
11848;DHT22;5983;49.966;8.052;2023-02-01T01:40:13;6.20;99.90
11848;DHT22;5983;49.966;8.052;2023-02-01T01:42:42;6.20;99.90
11848;DHT22;5983;49.966;8.052;2023-02-01T01:45:20;6.20;99.90
11848;DHT22;5983;49.966;8.052;2023-02-01T01:47:53;6.20;99.90
11848;DHT22;5983;49.966;8.052;2023-02-01T01:50:24;6.20;99.90
11848;DHT22;5983;49.966;8.052;2023-02-01T01:52:55;6.20;99.90
11848;DHT22;5983;49.966;8.052;2023-02-01T01:55:25;6.20;99.90
11848;DHT22;5983;49.966;8.052;2023-02-01T01:58:01;6.20;99.90
11848;DHT22;5983;49.966;8.052;2023-02-01T02:00:31;6.20;99.90
11848;DHT22;5983;49.966;8.052;2023-02-01T02:03:03;6.20;99.90
11848;DHT22;5983;49.966;8.052;2023-02-01T02:05:38;6.30;99.90
11848;DHT22;5983;49.966;8.052;2023-02-01T02:08:05;6.30;99.90
11848;DHT22;5983;49.966;8.052;2023-02-01T02:10:32;6.30;99.90
11848;DHT22;5983;49.966;8.052;2023-02-01T02:13:18;6.30;99.90
11848;DHT22;5983;49.966;8.052;2023-02-01T02:15:52;6.30;99.90
11848;DHT22;5983;49.966;8.052;2023-02-01T02:18:35;6.30;99.90
11848;DHT22;5983;49.966;8.052;2023-02-01T02:21:30;6.30;99.90
11848;DHT22;5983;49.966;8.052;2023-02-01T02:24:37;6.40;99.90
11848;DHT22;5983;49.966;8.052;2023-02-01T02:27:24;6.40;99.90
11848;DHT22;5983;49.966;8.052;2023-02-01T02:36:30;6.40;99.90
11848;DHT22;5983;49.966;8.052;2023-02-01T02:39:06;6.40;99.90
11848;DHT22;5983;49.966;8.052;2023-02-01T02:41:48;6.30;99.90
11848;DHT22;5983;49.966;8.052;2023-02-01T02:44:46;6.30;99.90
11848;DHT22;5983;49.966;8.052;2023-02-01T02:47:40;6.30;99.90
11848;DHT22;5983;49.966;8.052;2023-02-01T02:50:18;6.40;99.90
11848;DHT22;5983;49.966;8.052;2023-02-01T02:53:15;6.40;99.90
11848;DHT22;5983;49.966;8.052;2023-02-01T02:56:02;6.40;99.90
11848;DHT22;5983;49.966;8.052;2023-02-01T02:58:49;6.40;99.90
11848;DHT22;5983;49.966;8.052;2023-02-01T03:01:35;6.30;99.90
11848;DHT22;5983;49.966;8.052;2023-02-01T03:04:20;6.30;99.90
11848;DHT22;5983;49.966;8.052;2023-02-01T03:06:50;6.30;99.90
11848;DHT22;5983;49.966;8.052;2023-02-01T03:09:22;6.30;99.90
11848;DHT22;5983;49.966;8.052;2023-02-01T03:11:58;6.30;99.90
11848;DHT22;5983;49.966;8.052;2023-02-01T03:14:49;6.30;99.90
11848;DHT22;5983;49.966;8.052;2023-02-01T03:17:24;6.30;99.90
11848;DHT22;5983;49.966;8.052;2023-02-01T03:20:00;6.30;99.90
11848;DHT22;5983;49.966;8.052;2023-02-01T03:22:32;6.40;99.90
11848;DHT22;5983;49.966;8.052;2023-02-01T03:25:06;6.30;99.90
11848;DHT22;5983;49.966;8.052;2023-02-01T03:27:41;6.30;99.90
11848;DHT22;5983;49.966;8.052;2023-02-01T03:30:19;6.30;99.90
11848;DHT22;5983;49.966;8.052;2023-02-01T03:32:50;6.30;99.90
11848;DHT22;5983;49.966;8.052;2023-02-01T03:35:30;6.30;99.90
11848;DHT22;5983;49.966;8.052;2023-02-01T03:38:08;6.30;99.90
11848;DHT22;5983;49.966;8.052;2023-02-01T03:40:46;6.30;99.90
11848;DHT22;5983;49.966;8.052;2023-02-01T03:43:19;6.30;99.90
11848;DHT22;5983;49.966;8.052;2023-02-01T03:45:52;6.30;99.90
11848;DHT22;5983;49.966;8.052;2023-02-01T03:48:24;6.20;99.90
11848;DHT22;5983;49.966;8.052;2023-02-01T03:50:57;6.20;99.90
11848;DHT22;5983;49.966;8.052;2023-02-01T03:53:29;6.20;99.90
11848;DHT22;5983;49.966;8.052;2023-02-01T03:55:57;6.20;99.90
11848;DHT22;5983;49.966;8.052;2023-02-01T03:58:24;6.20;99.90
11848;DHT22;5983;49.966;8.052;2023-02-01T04:00:56;6.20;99.90
11848;DHT22;5983;49.966;8.052;2023-02-01T04:03:25;6.30;99.90
11848;DHT22;5983;49.966;8.052;2023-02-01T04:05:54;6.20;99.90
11848;DHT22;5983;49.966;8.052;2023-02-01T04:08:21;6.30;99.90
11848;DHT22;5983;49.966;8.052;2023-02-01T04:10:50;6.30;99.90
11848;DHT22;5983;49.966;8.052;2023-02-01T04:13:17;6.30;99.90
11848;DHT22;5983;49.966;8.052;2023-02-01T04:15:44;6.30;99.90
11848;DHT22;5983;49.966;8.052;2023-02-01T04:18:15;6.30;99.90
11848;DHT22;5983;49.966;8.052;2023-02-01T04:20:42;6.30;99.90
11848;DHT22;5983;49.966;8.052;2023-02-01T04:23:10;6.40;99.90
11848;DHT22;5983;49.966;8.052;2023-02-01T04:25:37;6.30;99.90
11848;DHT22;5983;49.966;8.052;2023-02-01T04:28:05;6.30;99.90
11848;DHT22;5983;49.966;8.052;2023-02-01T04:30:33;6.30;99.90
11848;DHT22;5983;49.966;8.052;2023-02-01T04:33:00;6.30;99.90
11848;DHT22;5983;49.966;8.052;2023-02-01T04:35:29;6.30;99.90
11848;DHT22;5983;49.966;8.052;2023-02-01T04:37:55;6.40;99.90
11848;DHT22;5983;49.966;8.052;2023-02-01T04:40:22;6.40;99.90
11848;DHT22;5983;49.966;8.052;2023-02-01T04:42:49;6.40;99.90
11848;DHT22;5983;49.966;8.052;2023-02-01T04:45:17;6.40;99.90
11848;DHT22;5983;49.966;8.052;2023-02-01T04:47:44;6.40;99.90
11848;DHT22;5983;49.966;8.052;2023-02-01T04:50:11;6.30;99.90
11848;DHT22;5983;49.966;8.052;2023-02-01T04:52:38;6.30;99.90
11848;DHT22;5983;49.966;8.052;2023-02-01T04:55:05;6.30;99.90
11848;DHT22;5983;49.966;8.052;2023-02-01T04:57:33;6.30;99.90
11848;DHT22;5983;49.966;8.052;2023-02-01T04:59:59;6.30;99.90
11848;DHT22;5983;49.966;8.052;2023-02-01T05:02:28;6.30;99.90
11848;DHT22;5983;49.966;8.052;2023-02-01T05:04:54;6.30;99.90
11848;DHT22;5983;49.966;8.052;2023-02-01T05:07:21;6.30;99.90
11848;DHT22;5983;49.966;8.052;2023-02-01T05:09:48;6.30;99.90
11848;DHT22;5983;49.966;8.052;2023-02-01T05:12:15;6.40;99.90
11848;DHT22;5983;49.966;8.052;2023-02-01T05:14:59;6.40;99.90
11848;DHT22;5983;49.966;8.052;2023-02-01T05:17:28;6.40;99.90
11848;DHT22;5983;49.966;8.052;2023-02-01T05:19:55;6.40;99.90
11848;DHT22;5983;49.966;8.052;2023-02-01T05:22:21;6.40;99.90
11848;DHT22;5983;49.966;8.052;2023-02-01T05:24:48;6.40;99.90
11848;DHT22;5983;49.966;8.052;2023-02-01T05:27:15;6.30;99.90
11848;DHT22;5983;49.966;8.052;2023-02-01T05:29:42;6.30;99.90
11848;DHT22;5983;49.966;8.052;2023-02-01T05:32:10;6.30;99.90
11848;DHT22;5983;49.966;8.052;2023-02-01T05:34:38;6.30;99.90
11848;DHT22;5983;49.966;8.052;2023-02-01T05:37:05;6.20;99.90
11848;DHT22;5983;49.966;8.052;2023-02-01T05:39:32;6.30;99.90
11848;DHT22;5983;49.966;8.052;2023-02-01T05:41:59;6.30;99.90
11848;DHT22;5983;49.966;8.052;2023-02-01T05:44:26;6.30;99.90
11848;DHT22;5983;49.966;8.052;2023-02-01T05:46:53;6.30;99.90
11848;DHT22;5983;49.966;8.052;2023-02-01T05:49:20;6.40;99.90
11848;DHT22;5983;49.966;8.052;2023-02-01T05:51:48;6.40;99.90
11848;DHT22;5983;49.966;8.052;2023-02-01T05:54:15;6.40;99.90
11848;DHT22;5983;49.966;8.052;2023-02-01T05:56:42;6.40;99.90
11848;DHT22;5983;49.966;8.052;2023-02-01T05:59:09;6.40;99.90
11848;DHT22;5983;49.966;8.052;2023-02-01T06:01:36;6.40;99.90
11848;DHT22;5983;49.966;8.052;2023-02-01T06:04:03;6.40;99.90
11848;DHT22;5983;49.966;8.052;2023-02-01T06:06:30;6.40;99.90
11848;DHT22;5983;49.966;8.052;2023-02-01T06:08:58;6.40;99.90
11848;DHT22;5983;49.966;8.052;2023-02-01T06:11:26;6.40;99.90
11848;DHT22;5983;49.966;8.052;2023-02-01T06:13:53;6.30;99.90
11848;DHT22;5983;49.966;8.052;2023-02-01T06:16:20;6.30;99.90
11848;DHT22;5983;49.966;8.052;2023-02-01T06:18:48;6.30;99.90
11848;DHT22;5983;49.966;8.052;2023-02-01T06:21:15;6.20;99.90
11848;DHT22;5983;49.966;8.052;2023-02-01T06:23:49;6.20;99.90
11848;DHT22;5983;49.966;8.052;2023-02-01T06:26:17;6.10;99.90
11848;DHT22;5983;49.966;8.052;2023-02-01T06:28:44;6.10;99.90
11848;DHT22;5983;49.966;8.052;2023-02-01T06:31:11;6.00;99.90
11848;DHT22;5983;49.966;8.052;2023-02-01T06:33:38;5.90;99.90
11848;DHT22;5983;49.966;8.052;2023-02-01T06:36:07;5.80;99.90
11848;DHT22;5983;49.966;8.052;2023-02-01T06:38:36;5.70;99.90
11848;DHT22;5983;49.966;8.052;2023-02-01T06:41:04;5.70;99.90
11848;DHT22;5983;49.966;8.052;2023-02-01T06:43:33;5.60;99.90
11848;DHT22;5983;49.966;8.052;2023-02-01T06:46:01;5.60;99.90
11848;DHT22;5983;49.966;8.052;2023-02-01T06:48:29;5.60;99.90
11848;DHT22;5983;49.966;8.052;2023-02-01T06:50:56;5.50;99.90
11848;DHT22;5983;49.966;8.052;2023-02-01T06:53:23;5.50;99.90
11848;DHT22;5983;49.966;8.052;2023-02-01T06:55:54;5.50;99.90
11848;DHT22;5983;49.966;8.052;2023-02-01T06:58:22;5.50;99.90
11848;DHT22;5983;49.966;8.052;2023-02-01T07:00:51;5.50;99.90
11848;DHT22;5983;49.966;8.052;2023-02-01T07:03:19;5.50;99.90
11848;DHT22;5983;49.966;8.052;2023-02-01T07:05:46;5.50;99.90
11848;DHT22;5983;49.966;8.052;2023-02-01T07:08:13;5.50;99.90
11848;DHT22;5983;49.966;8.052;2023-02-01T07:10:40;5.50;99.90
11848;DHT22;5983;49.966;8.052;2023-02-01T07:13:07;5.50;99.90
11848;DHT22;5983;49.966;8.052;2023-02-01T07:15:34;5.50;99.90
11848;DHT22;5983;49.966;8.052;2023-02-01T07:18:03;5.50;99.90
11848;DHT22;5983;49.966;8.052;2023-02-01T07:20:30;5.50;99.90
11848;DHT22;5983;49.966;8.052;2023-02-01T07:22:57;5.50;99.90
11848;DHT22;5983;49.966;8.052;2023-02-01T07:25:24;5.60;99.90
11848;DHT22;5983;49.966;8.052;2023-02-01T07:27:51;5.60;99.90
11848;DHT22;5983;49.966;8.052;2023-02-01T07:30:19;5.60;99.90
11848;DHT22;5983;49.966;8.052;2023-02-01T07:32:46;5.70;99.90
11848;DHT22;5983;49.966;8.052;2023-02-01T07:35:14;5.70;99.90
11848;DHT22;5983;49.966;8.052;2023-02-01T07:37:41;5.80;99.90
11848;DHT22;5983;49.966;8.052;2023-02-01T07:40:09;5.80;99.90
11848;DHT22;5983;49.966;8.052;2023-02-01T07:42:37;5.90;99.90
11848;DHT22;5983;49.966;8.052;2023-02-01T07:45:05;6.00;99.90
11848;DHT22;5983;49.966;8.052;2023-02-01T07:47:33;6.10;99.90
11848;DHT22;5983;49.966;8.052;2023-02-01T07:50:00;6.40;99.90
11848;DHT22;5983;49.966;8.052;2023-02-01T07:52:29;6.70;99.90
11848;DHT22;5983;49.966;8.052;2023-02-01T07:54:55;7.30;99.90
11848;DHT22;5983;49.966;8.052;2023-02-01T07:57:22;8.00;99.90
11848;DHT22;5983;49.966;8.052;2023-02-01T07:59:49;8.60;99.90
11848;DHT22;5983;49.966;8.052;2023-02-01T08:02:34;8.80;99.90
11848;DHT22;5983;49.966;8.052;2023-02-01T08:05:00;9.00;99.90
11848;DHT22;5983;49.966;8.052;2023-02-01T08:07:29;9.20;99.90
11848;DHT22;5983;49.966;8.052;2023-02-01T08:09:56;9.50;99.90
11848;DHT22;5983;49.966;8.052;2023-02-01T08:12:22;9.80;99.90
11848;DHT22;5983;49.966;8.052;2023-02-01T08:14:49;9.90;99.90
11848;DHT22;5983;49.966;8.052;2023-02-01T08:17:16;9.90;99.90
11848;DHT22;5983;49.966;8.052;2023-02-01T08:19:43;9.70;99.90
11848;DHT22;5983;49.966;8.052;2023-02-01T08:22:10;9.30;99.90
11848;DHT22;5983;49.966;8.052;2023-02-01T08:24:38;8.80;99.90
11848;DHT22;5983;49.966;8.052;2023-02-01T08:27:07;8.40;99.90
11848;DHT22;5983;49.966;8.052;2023-02-01T08:29:34;8.20;99.90
11848;DHT22;5983;49.966;8.052;2023-02-01T08:32:01;7.90;99.90
11848;DHT22;5983;49.966;8.052;2023-02-01T08:34:28;7.80;99.90
11848;DHT22;5983;49.966;8.052;2023-02-01T08:36:55;7.50;99.90
11848;DHT22;5983;49.966;8.052;2023-02-01T08:39:25;7.40;99.90
11848;DHT22;5983;49.966;8.052;2023-02-01T08:41:54;7.30;99.90
11848;DHT22;5983;49.966;8.052;2023-02-01T08:44:38;7.30;99.90
11848;DHT22;5983;49.966;8.052;2023-02-01T08:47:05;7.20;99.90
11848;DHT22;5983;49.966;8.052;2023-02-01T08:49:32;7.30;99.90
11848;DHT22;5983;49.966;8.052;2023-02-01T08:51:59;7.40;99.90
11848;DHT22;5983;49.966;8.052;2023-02-01T08:54:26;7.90;99.90
11848;DHT22;5983;49.966;8.052;2023-02-01T08:56:54;8.90;99.90
11848;DHT22;5983;49.966;8.052;2023-02-01T08:59:21;9.70;99.90
11848;DHT22;5983;49.966;8.052;2023-02-01T09:01:48;10.50;99.90
11848;DHT22;5983;49.966;8.052;2023-02-01T09:04:15;11.00;99.90
11848;DHT22;5983;49.966;8.052;2023-02-01T09:06:42;11.10;99.90
11848;DHT22;5983;49.966;8.052;2023-02-01T09:09:09;11.30;99.90
11848;DHT22;5983;49.966;8.052;2023-02-01T09:11:36;11.50;99.90
11848;DHT22;5983;49.966;8.052;2023-02-01T09:14:04;11.80;99.90
11848;DHT22;5983;49.966;8.052;2023-02-01T09:16:31;11.70;99.90
11848;DHT22;5983;49.966;8.052;2023-02-01T09:18:58;11.70;99.90
11848;DHT22;5983;49.966;8.052;2023-02-01T09:21:25;11.70;99.90
11848;DHT22;5983;49.966;8.052;2023-02-01T09:23:52;11.60;99.90
11848;DHT22;5983;49.966;8.052;2023-02-01T09:26:19;11.10;99.90
11848;DHT22;5983;49.966;8.052;2023-02-01T09:28:46;10.60;99.90
11848;DHT22;5983;49.966;8.052;2023-02-01T09:31:14;10.10;99.90
11848;DHT22;5983;49.966;8.052;2023-02-01T09:33:41;9.60;99.90
11848;DHT22;5983;49.966;8.052;2023-02-01T09:36:08;9.20;99.90
11848;DHT22;5983;49.966;8.052;2023-02-01T09:38:35;8.90;99.90
11848;DHT22;5983;49.966;8.052;2023-02-01T09:41:10;8.80;99.90
11848;DHT22;5983;49.966;8.052;2023-02-01T09:43:58;8.60;99.90
11848;DHT22;5983;49.966;8.052;2023-02-01T09:46:35;8.40;99.90
11848;DHT22;5983;49.966;8.052;2023-02-01T09:49:08;8.30;99.90
11848;DHT22;5983;49.966;8.052;2023-02-01T09:51:42;8.30;99.90
11848;DHT22;5983;49.966;8.052;2023-02-01T09:54:15;8.30;99.90
11848;DHT22;5983;49.966;8.052;2023-02-01T09:56:46;8.40;99.90
11848;DHT22;5983;49.966;8.052;2023-02-01T09:59:26;8.40;99.90
11848;DHT22;5983;49.966;8.052;2023-02-01T10:02:02;8.30;99.90
11848;DHT22;5983;49.966;8.052;2023-02-01T10:04:31;8.20;99.90
11848;DHT22;5983;49.966;8.052;2023-02-01T10:07:08;8.20;99.90
11848;DHT22;5983;49.966;8.052;2023-02-01T10:09:59;8.20;99.90
11848;DHT22;5983;49.966;8.052;2023-02-01T10:12:44;8.10;99.90
11848;DHT22;5983;49.966;8.052;2023-02-01T10:15:54;8.10;99.90
11848;DHT22;5983;49.966;8.052;2023-02-01T10:18:47;8.10;99.90
11848;DHT22;5983;49.966;8.052;2023-02-01T10:21:31;8.10;99.90
11848;DHT22;5983;49.966;8.052;2023-02-01T10:24:24;8.30;99.90
11848;DHT22;5983;49.966;8.052;2023-02-01T10:27:14;8.30;99.90
11848;DHT22;5983;49.966;8.052;2023-02-01T10:29:48;8.30;99.90
11848;DHT22;5983;49.966;8.052;2023-02-01T10:32:21;8.30;99.90
11848;DHT22;5983;49.966;8.052;2023-02-01T10:34:57;8.20;99.90
11848;DHT22;5983;49.966;8.052;2023-02-01T10:37:28;8.20;99.90
11848;DHT22;5983;49.966;8.052;2023-02-01T10:39:59;8.10;99.90
11848;DHT22;5983;49.966;8.052;2023-02-01T10:42:29;8.00;99.90
11848;DHT22;5983;49.966;8.052;2023-02-01T10:44:59;8.00;99.90
11848;DHT22;5983;49.966;8.052;2023-02-01T10:47:29;7.90;99.90
11848;DHT22;5983;49.966;8.052;2023-02-01T10:50:06;7.80;99.90
11848;DHT22;5983;49.966;8.052;2023-02-01T10:52:45;7.80;99.90
11848;DHT22;5983;49.966;8.052;2023-02-01T10:55:38;7.70;99.90
11848;DHT22;5983;49.966;8.052;2023-02-01T10:58:12;7.70;99.90
11848;DHT22;5983;49.966;8.052;2023-02-01T11:00:45;7.70;99.90
11848;DHT22;5983;49.966;8.052;2023-02-01T11:03:22;7.60;99.90
11848;DHT22;5983;49.966;8.052;2023-02-01T11:06:21;7.60;99.90
11848;DHT22;5983;49.966;8.052;2023-02-01T11:08:54;7.60;99.90
11848;DHT22;5983;49.966;8.052;2023-02-01T11:11:22;7.70;99.90
11848;DHT22;5983;49.966;8.052;2023-02-01T11:13:53;7.70;99.90
11848;DHT22;5983;49.966;8.052;2023-02-01T11:16:29;7.60;99.90
11848;DHT22;5983;49.966;8.052;2023-02-01T11:18:59;7.60;99.90
11848;DHT22;5983;49.966;8.052;2023-02-01T11:21:28;7.60;99.90
11848;DHT22;5983;49.966;8.052;2023-02-01T11:24:00;7.60;99.90
11848;DHT22;5983;49.966;8.052;2023-02-01T11:26:28;7.60;99.90
11848;DHT22;5983;49.966;8.052;2023-02-01T11:29:00;7.60;99.90
11848;DHT22;5983;49.966;8.052;2023-02-01T11:31:30;7.60;99.90
11848;DHT22;5983;49.966;8.052;2023-02-01T11:34:05;7.60;99.90
11848;DHT22;5983;49.966;8.052;2023-02-01T11:36:37;7.60;99.90
11848;DHT22;5983;49.966;8.052;2023-02-01T11:39:17;7.60;99.90
11848;DHT22;5983;49.966;8.052;2023-02-01T11:42:00;7.60;99.90
11848;DHT22;5983;49.966;8.052;2023-02-01T11:44:33;7.70;99.90
11848;DHT22;5983;49.966;8.052;2023-02-01T11:47:22;7.70;99.90
11848;DHT22;5983;49.966;8.052;2023-02-01T11:49:52;7.70;99.90
11848;DHT22;5983;49.966;8.052;2023-02-01T11:52:41;7.70;99.90
11848;DHT22;5983;49.966;8.052;2023-02-01T11:55:42;7.70;99.90
11848;DHT22;5983;49.966;8.052;2023-02-01T12:01:30;7.60;99.90
11848;DHT22;5983;49.966;8.052;2023-02-01T12:04:15;7.60;99.90
11848;DHT22;5983;49.966;8.052;2023-02-01T12:06:58;7.70;99.90
11848;DHT22;5983;49.966;8.052;2023-02-01T12:09:52;7.70;99.90
11848;DHT22;5983;49.966;8.052;2023-02-01T12:12:38;7.80;99.90
11848;DHT22;5983;49.966;8.052;2023-02-01T12:15:22;7.80;99.90
11848;DHT22;5983;49.966;8.052;2023-02-01T12:18:12;7.90;99.90
11848;DHT22;5983;49.966;8.052;2023-02-01T12:21:06;7.90;99.90
11848;DHT22;5983;49.966;8.052;2023-02-01T12:24:01;7.90;99.90
11848;DHT22;5983;49.966;8.052;2023-02-01T12:26:50;7.90;99.90
11848;DHT22;5983;49.966;8.052;2023-02-01T12:29:35;7.90;99.90
11848;DHT22;5983;49.966;8.052;2023-02-01T12:32:28;7.90;99.90
11848;DHT22;5983;49.966;8.052;2023-02-01T12:35:19;7.90;99.90
11848;DHT22;5983;49.966;8.052;2023-02-01T12:38:06;7.90;99.90
11848;DHT22;5983;49.966;8.052;2023-02-01T12:40:53;7.90;99.90
11848;DHT22;5983;49.966;8.052;2023-02-01T12:43:38;7.90;99.90
11848;DHT22;5983;49.966;8.052;2023-02-01T12:46:12;8.00;99.90
11848;DHT22;5983;49.966;8.052;2023-02-01T12:48:49;7.90;99.90
11848;DHT22;5983;49.966;8.052;2023-02-01T12:51:26;7.90;99.90
11848;DHT22;5983;49.966;8.052;2023-02-01T12:53:59;7.90;99.90
11848;DHT22;5983;49.966;8.052;2023-02-01T12:56:34;7.90;99.90
11848;DHT22;5983;49.966;8.052;2023-02-01T12:59:13;7.90;99.90
11848;DHT22;5983;49.966;8.052;2023-02-01T13:01:49;7.90;99.90
11848;DHT22;5983;49.966;8.052;2023-02-01T13:04:26;7.90;99.90
11848;DHT22;5983;49.966;8.052;2023-02-01T13:07:03;7.80;99.90
11848;DHT22;5983;49.966;8.052;2023-02-01T13:09:40;7.80;99.90
11848;DHT22;5983;49.966;8.052;2023-02-01T13:12:13;7.90;99.90
11848;DHT22;5983;49.966;8.052;2023-02-01T13:14:48;7.90;99.90
11848;DHT22;5983;49.966;8.052;2023-02-01T13:17:22;7.90;99.90
11848;DHT22;5983;49.966;8.052;2023-02-01T13:19:53;8.00;99.90
11848;DHT22;5983;49.966;8.052;2023-02-01T13:22:29;8.00;99.90
11848;DHT22;5983;49.966;8.052;2023-02-01T13:24:59;8.00;99.90
11848;DHT22;5983;49.966;8.052;2023-02-01T13:27:29;8.10;99.90
11848;DHT22;5983;49.966;8.052;2023-02-01T13:30:00;8.10;99.90
11848;DHT22;5983;49.966;8.052;2023-02-01T13:32:58;8.10;99.90
11848;DHT22;5983;49.966;8.052;2023-02-01T13:36:07;8.10;99.90
11848;DHT22;5983;49.966;8.052;2023-02-01T13:39:05;8.10;99.90
11848;DHT22;5983;49.966;8.052;2023-02-01T13:41:52;8.30;99.90
11848;DHT22;5983;49.966;8.052;2023-02-01T13:44:28;9.10;99.90
11848;DHT22;5983;49.966;8.052;2023-02-01T13:47:02;9.80;99.90
11848;DHT22;5983;49.966;8.052;2023-02-01T13:49:38;11.50;99.90
11848;DHT22;5983;49.966;8.052;2023-02-01T13:52:27;13.60;99.90
11848;DHT22;5983;49.966;8.052;2023-02-01T13:55:14;15.10;99.90
11848;DHT22;5983;49.966;8.052;2023-02-01T13:58:00;15.20;99.90
11848;DHT22;5983;49.966;8.052;2023-02-01T14:00:32;14.30;99.90
11848;DHT22;5983;49.966;8.052;2023-02-01T14:03:22;13.80;99.90
11848;DHT22;5983;49.966;8.052;2023-02-01T14:06:39;13.60;99.90
11848;DHT22;5983;49.966;8.052;2023-02-01T14:09:30;12.90;99.90
11848;DHT22;5983;49.966;8.052;2023-02-01T14:12:46;12.10;99.90
11848;DHT22;5983;49.966;8.052;2023-02-01T14:15:25;11.50;99.90
11848;DHT22;5983;49.966;8.052;2023-02-01T14:17:54;11.10;99.90
11848;DHT22;5983;49.966;8.052;2023-02-01T14:20:57;10.80;99.90
11848;DHT22;5983;49.966;8.052;2023-02-01T14:23:45;10.30;99.90
11848;DHT22;5983;49.966;8.052;2023-02-01T14:26:17;9.90;99.90
11848;DHT22;5983;49.966;8.052;2023-02-01T14:29:00;9.60;99.90
11848;DHT22;5983;49.966;8.052;2023-02-01T14:31:42;9.30;99.90
11848;DHT22;5983;49.966;8.052;2023-02-01T14:34:36;9.10;99.90
11848;DHT22;5983;49.966;8.052;2023-02-01T14:37:12;9.00;99.90
11848;DHT22;5983;49.966;8.052;2023-02-01T14:39:57;9.20;99.90
11848;DHT22;5983;49.966;8.052;2023-02-01T14:42:30;9.30;99.90
11848;DHT22;5983;49.966;8.052;2023-02-01T14:48:44;9.70;99.90
11848;DHT22;5983;49.966;8.052;2023-02-01T14:51:15;10.00;99.90
11848;DHT22;5983;49.966;8.052;2023-02-01T14:53:45;9.90;99.90
11848;DHT22;5983;49.966;8.052;2023-02-01T14:56:15;9.80;99.90
11848;DHT22;5983;49.966;8.052;2023-02-01T14:58:50;9.70;99.90
11848;DHT22;5983;49.966;8.052;2023-02-01T15:01:23;9.60;99.90
11848;DHT22;5983;49.966;8.052;2023-02-01T15:03:56;9.50;99.90
11848;DHT22;5983;49.966;8.052;2023-02-01T15:06:35;9.50;99.90
11848;DHT22;5983;49.966;8.052;2023-02-01T15:09:09;9.50;99.90
11848;DHT22;5983;49.966;8.052;2023-02-01T15:11:54;9.50;99.90
11848;DHT22;5983;49.966;8.052;2023-02-01T15:14:28;9.40;99.90
11848;DHT22;5983;49.966;8.052;2023-02-01T15:16:56;9.40;99.90
11848;DHT22;5983;49.966;8.052;2023-02-01T15:19:25;9.30;99.90
11848;DHT22;5983;49.966;8.052;2023-02-01T15:21:55;9.20;99.90
11848;DHT22;5983;49.966;8.052;2023-02-01T15:24:33;9.20;99.90
11848;DHT22;5983;49.966;8.052;2023-02-01T15:27:15;9.10;99.90
11848;DHT22;5983;49.966;8.052;2023-02-01T15:29:43;9.10;99.90
11848;DHT22;5983;49.966;8.052;2023-02-01T15:32:29;9.00;99.90
11848;DHT22;5983;49.966;8.052;2023-02-01T15:34:57;8.90;99.90
11848;DHT22;5983;49.966;8.052;2023-02-01T15:37:26;8.90;99.90
11848;DHT22;5983;49.966;8.052;2023-02-01T15:40:17;8.80;99.90
11848;DHT22;5983;49.966;8.052;2023-02-01T15:42:51;8.70;99.90
11848;DHT22;5983;49.966;8.052;2023-02-01T15:45:22;8.70;99.90
11848;DHT22;5983;49.966;8.052;2023-02-01T15:47:55;8.70;99.90
11848;DHT22;5983;49.966;8.052;2023-02-01T15:50:23;8.70;99.90
11848;DHT22;5983;49.966;8.052;2023-02-01T15:52:52;8.60;99.90
11848;DHT22;5983;49.966;8.052;2023-02-01T15:55:24;8.50;99.90
11848;DHT22;5983;49.966;8.052;2023-02-01T15:58:05;8.50;99.90
11848;DHT22;5983;49.966;8.052;2023-02-01T16:00:42;8.40;99.90
11848;DHT22;5983;49.966;8.052;2023-02-01T16:03:32;8.30;99.90
11848;DHT22;5983;49.966;8.052;2023-02-01T16:06:04;8.30;99.90
11848;DHT22;5983;49.966;8.052;2023-02-01T16:08:33;8.30;99.90
11848;DHT22;5983;49.966;8.052;2023-02-01T16:11:21;8.20;99.90
11848;DHT22;5983;49.966;8.052;2023-02-01T16:13:50;8.20;99.90
11848;DHT22;5983;49.966;8.052;2023-02-01T16:16:17;8.20;99.90
11848;DHT22;5983;49.966;8.052;2023-02-01T16:18:44;8.20;99.90
11848;DHT22;5983;49.966;8.052;2023-02-01T16:21:12;8.10;99.90
11848;DHT22;5983;49.966;8.052;2023-02-01T16:23:39;8.10;99.90
11848;DHT22;5983;49.966;8.052;2023-02-01T16:26:07;8.10;99.90
11848;DHT22;5983;49.966;8.052;2023-02-01T16:28:35;8.10;99.90
11848;DHT22;5983;49.966;8.052;2023-02-01T16:31:02;8.10;99.90
11848;DHT22;5983;49.966;8.052;2023-02-01T16:33:29;8.00;99.90
11848;DHT22;5983;49.966;8.052;2023-02-01T16:35:56;8.00;99.90
11848;DHT22;5983;49.966;8.052;2023-02-01T16:38:27;8.00;99.90
11848;DHT22;5983;49.966;8.052;2023-02-01T16:40:54;7.90;99.90
11848;DHT22;5983;49.966;8.052;2023-02-01T16:43:25;7.90;99.90
11848;DHT22;5983;49.966;8.052;2023-02-01T16:45:54;7.90;99.90
11848;DHT22;5983;49.966;8.052;2023-02-01T16:48:29;7.90;99.90
11848;DHT22;5983;49.966;8.052;2023-02-01T16:51:02;7.90;99.90
11848;DHT22;5983;49.966;8.052;2023-02-01T16:53:34;7.90;99.90